Time;durP1;ratioP1;P1;durP2;ratioP2;P2;SDS_P1;SDS_P2;PMS_P1;PMS_P2;Temp;Humidity;BMP_temperature;BMP_pressure;BME280_temperature;BME280_humidity;BME280_pressure;Samples;Min_cycle;Max_cycle;Signal;HPM_P1;HPM_P2
2023/04/14 00:01:04;;;;;;;0.70;0.60;;;;;;;;;;5079198;28;20208;-72
2023/04/14 00:03:31;;;;;;;0.70;0.60;;;;;;;;;;5079797;28;20201;-73
2023/04/14 00:05:58;;;;;;;0.70;0.60;;;;;;;;;;5082663;28;20204;-74
2023/04/14 00:08:24;;;;;;;0.70;0.60;;;;;;;;;;5081350;28;20209;-75
2023/04/14 00:10:51;;;;;;;0.70;0.70;;;;;;;;;;5079301;28;20209;-75
2023/04/14 00:13:17;;;;;;;0.70;0.63;;;;;;;;;;5074968;28;20205;-75
2023/04/14 00:15:44;;;;;;;0.70;0.70;;;;;;;;;;5077480;28;20225;-74
2023/04/14 00:18:12;;;;;;;0.70;0.60;;;;;;;;;;5081745;28;20537;-73
2023/04/14 00:20:39;;;;;;;0.70;0.70;;;;;;;;;;5078635;28;20200;-72
2023/04/14 00:23:05;;;;;;;0.70;0.63;;;;;;;;;;5081780;28;20212;-73
2023/04/14 00:25:32;;;;;;;0.70;0.60;;;;;;;;;;5077617;28;20188;-76
2023/04/14 00:27:59;;;;;;;0.70;0.70;;;;;;;;;;5082148;28;20254;-74
2023/04/14 00:30:25;;;;;;;0.70;0.60;;;;;;;;;;5073738;28;20202;-74
2023/04/14 00:32:52;;;;;;;0.70;0.60;;;;;;;;;;5087242;28;20188;-74
2023/04/14 00:35:20;;;;;;;0.70;0.70;;;;;;;;;;5079336;28;20220;-72
2023/04/14 00:37:47;;;;;;;0.70;0.70;;;;;;;;;;5077795;28;20221;-72
2023/04/14 00:40:13;;;;;;;0.70;0.70;;;;;;;;;;5081053;28;20198;-75
2023/04/14 00:42:41;;;;;;;0.70;0.70;;;;;;;;;;5080777;28;20604;-72
2023/04/14 00:45:07;;;;;;;0.70;0.70;;;;;;;;;;5081517;28;20586;-73
2023/04/14 00:47:34;;;;;;;0.70;0.70;;;;;;;;;;5088156;28;20212;-74
2023/04/14 00:50:01;;;;;;;0.70;0.60;;;;;;;;;;5063238;28;20255;-75
2023/04/14 00:52:29;;;;;;;0.80;0.80;;;;;;;;;;5079186;28;20216;-73
2023/04/14 00:54:56;;;;;;;0.80;0.80;;;;;;;;;;5087878;28;20190;-73
2023/04/14 00:57:23;;;;;;;0.70;0.70;;;;;;;;;;5079690;28;20200;-73
2023/04/14 00:59:49;;;;;;;0.70;0.70;;;;;;;;;;5080432;28;20199;-73
2023/04/14 01:02:16;;;;;;;0.80;0.80;;;;;;;;;;5081445;28;20227;-73
2023/04/14 01:04:43;;;;;;;0.70;0.70;;;;;;;;;;5083039;28;20631;-73
2023/04/14 01:07:21;;;;;;;0.70;0.60;;;;;;;;;;5080238;28;20298;-73
2023/04/14 01:09:49;;;;;;;0.70;0.70;;;;;;;;;;5079994;28;20197;-73
2023/04/14 01:12:19;;;;;;;0.70;0.60;;;;;;;;;;5087571;28;20247;-72
2023/04/14 01:14:49;;;;;;;0.70;0.60;;;;;;;;;;5081361;28;20203;-73
2023/04/14 01:17:18;;;;;;;0.70;0.70;;;;;;;;;;5087069;28;20216;-72
2023/04/14 01:19:52;;;;;;;0.70;0.60;;;;;;;;;;5073532;28;20195;-73
2023/04/14 01:22:19;;;;;;;0.70;0.60;;;;;;;;;;5076601;28;20234;-72
2023/04/14 01:25:03;;;;;;;0.70;0.70;;;;;;;;;;5067611;28;20193;-74
2023/04/14 01:27:34;;;;;;;0.70;0.70;;;;;;;;;;5086247;28;20204;-73
2023/04/14 01:30:22;;;;;;;0.70;0.70;;;;;;;;;;5086530;28;20418;-73
2023/04/14 01:32:52;;;;;;;0.70;0.60;;;;;;;;;;5093174;28;20278;-73
2023/04/14 01:35:25;;;;;;;0.70;0.60;;;;;;;;;;5086313;28;20195;-72
2023/04/14 01:37:53;;;;;;;3.63;2.03;;;;;;;;;;5083483;28;20229;-75
2023/04/14 01:40:23;;;;;;;0.70;0.70;;;;;;;;;;5078752;28;20315;-73
2023/04/14 01:42:54;;;;;;;0.70;0.60;;;;;;;;;;5064244;28;20213;-71
2023/04/14 01:45:22;;;;;;;0.70;0.68;;;;;;;;;;5079879;28;20251;-73
2023/04/14 01:47:50;;;;;;;0.70;0.70;;;;;;;;;;5068743;28;20664;-74
2023/04/14 01:50:18;;;;;;;0.70;0.60;;;;;;;;;;5061696;28;20208;-73
2023/04/14 01:52:50;;;;;;;0.70;0.70;;;;;;;;;;5063053;28;20224;-75
2023/04/14 01:55:18;;;;;;;0.70;0.70;;;;;;;;;;5079277;28;20287;-75
2023/04/14 01:57:45;;;;;;;0.73;0.73;;;;;;;;;;5074029;28;20214;-74
2023/04/14 02:00:13;;;;;;;0.70;0.70;;;;;;;;;;5078328;28;20256;-72
2023/04/14 02:02:40;;;;;;;0.70;0.70;;;;;;;;;;5086415;28;20205;-72
2023/04/14 02:05:09;;;;;;;0.70;0.70;;;;;;;;;;5088127;28;20192;-75
2023/04/14 02:07:36;;;;;;;0.70;0.70;;;;;;;;;;5076224;28;20216;-72
2023/04/14 02:10:03;;;;;;;0.70;0.60;;;;;;;;;;5077824;28;20561;-74
2023/04/14 02:12:30;;;;;;;0.70;0.68;;;;;;;;;;5062380;28;20200;-74
2023/04/14 02:14:57;;;;;;;0.70;0.60;;;;;;;;;;5080948;28;20196;-73
2023/04/14 02:17:27;;;;;;;0.70;0.70;;;;;;;;;;5066271;28;20223;-74
2023/04/14 02:19:53;;;;;;;0.60;0.60;;;;;;;;;;5080775;28;20200;-74
2023/04/14 02:22:21;;;;;;;0.65;0.60;;;;;;;;;;5077949;28;20223;-75
2023/04/14 02:24:48;;;;;;;0.80;0.80;;;;;;;;;;5082501;28;20200;-74
2023/04/14 02:27:16;;;;;;;0.70;0.60;;;;;;;;;;5083900;28;20200;-73
2023/04/14 02:29:46;;;;;;;0.70;0.60;;;;;;;;;;5066283;28;20219;-73
2023/04/14 02:32:18;;;;;;;0.70;0.60;;;;;;;;;;5074266;28;20284;-73
2023/04/14 02:34:48;;;;;;;0.70;0.60;;;;;;;;;;5090683;28;20197;-73
2023/04/14 02:37:17;;;;;;;0.60;0.60;;;;;;;;;;5080234;28;20229;-72
2023/04/14 02:39:50;;;;;;;0.70;0.60;;;;;;;;;;5081933;28;20558;-74
2023/04/14 02:42:17;;;;;;;0.70;0.60;;;;;;;;;;5081551;28;20214;-72
2023/04/14 02:44:46;;;;;;;0.70;0.60;;;;;;;;;;5079889;28;21227;-73
2023/04/14 02:47:16;;;;;;;0.70;0.70;;;;;;;;;;5064851;28;20291;-76
2023/04/14 02:49:45;;;;;;;0.70;0.70;;;;;;;;;;5087908;28;20212;-73
2023/04/14 02:52:14;;;;;;;0.70;0.60;;;;;;;;;;5083657;28;20286;-74
2023/04/14 02:54:45;;;;;;;0.70;0.68;;;;;;;;;;5084670;28;20197;-72
2023/04/14 02:57:13;;;;;;;1.20;1.10;;;;;;;;;;5084578;28;20220;-74
2023/04/14 02:59:44;;;;;;;0.70;0.60;;;;;;;;;;5086099;28;20213;-73
2023/04/14 03:02:11;;;;;;;0.70;0.70;;;;;;;;;;5076706;28;20200;-72
2023/04/14 03:04:43;;;;;;;0.70;0.60;;;;;;;;;;5065971;28;20227;-72
2023/04/14 03:07:20;;;;;;;0.70;0.60;;;;;;;;;;5067396;28;20220;-71
2023/04/14 03:09:49;;;;;;;0.70;0.70;;;;;;;;;;5079138;28;20312;-74
2023/04/14 03:12:18;;;;;;;1.42;1.33;;;;;;;;;;5082346;28;20303;-75
2023/04/14 03:14:46;;;;;;;0.70;0.60;;;;;;;;;;5085483;28;20713;-72
2023/04/14 03:17:13;;;;;;;0.70;0.60;;;;;;;;;;5080382;28;20623;-72
2023/04/14 03:19:41;;;;;;;0.60;0.60;;;;;;;;;;5087160;28;20208;-73
2023/04/14 03:22:09;;;;;;;0.70;0.70;;;;;;;;;;5081982;28;20215;-72
2023/04/14 03:24:37;;;;;;;0.70;0.60;;;;;;;;;;5096134;28;20717;-71
2023/04/14 03:27:07;;;;;;;0.70;0.70;;;;;;;;;;5082059;28;20266;-73
2023/04/14 03:29:38;;;;;;;0.70;0.70;;;;;;;;;;5082446;28;20665;-72
2023/04/14 03:32:07;;;;;;;0.70;0.70;;;;;;;;;;5082725;28;20192;-72
2023/04/14 03:34:37;;;;;;;0.70;0.60;;;;;;;;;;5081499;28;20576;-72
2023/04/14 03:37:05;;;;;;;0.70;0.65;;;;;;;;;;5088478;28;20700;-73
2023/04/14 03:39:35;;;;;;;0.70;0.70;;;;;;;;;;5080775;28;20224;-73
2023/04/14 03:42:02;;;;;;;0.80;0.80;;;;;;;;;;5071729;28;20228;-74
2023/04/14 03:44:34;;;;;;;0.70;0.70;;;;;;;;;;5076621;28;20200;-73
2023/04/14 03:47:02;;;;;;;0.70;0.70;;;;;;;;;;5072834;28;20291;-74
2023/04/14 03:49:35;;;;;;;0.70;0.60;;;;;;;;;;5081536;28;21033;-76
2023/04/14 03:52:04;;;;;;;0.70;0.70;;;;;;;;;;5080223;28;20274;-74
2023/04/14 03:54:32;;;;;;;0.70;0.60;;;;;;;;;;5083880;28;20200;-73
2023/04/14 03:57:00;;;;;;;0.70;0.70;;;;;;;;;;5082438;28;20215;-72
2023/04/14 03:59:28;;;;;;;0.70;0.70;;;;;;;;;;5086828;28;20185;-71
2023/04/14 04:01:57;;;;;;;0.70;0.70;;;;;;;;;;5079562;28;20204;-74
2023/04/14 04:04:26;;;;;;;0.70;0.63;;;;;;;;;;5082213;28;20192;-73
2023/04/14 04:06:53;;;;;;;0.93;0.93;;;;;;;;;;5086886;28;20208;-72
2023/04/14 04:09:23;;;;;;;0.70;0.70;;;;;;;;;;5088959;28;20741;-72
2023/04/14 04:11:51;;;;;;;0.70;0.70;;;;;;;;;;5087457;28;20199;-74
2023/04/14 04:14:20;;;;;;;0.80;0.80;;;;;;;;;;5082283;28;20586;-75
2023/04/14 04:16:48;;;;;;;0.70;0.60;;;;;;;;;;5079148;28;20262;-70
2023/04/14 04:19:17;;;;;;;0.70;0.70;;;;;;;;;;5084368;28;20668;-72
2023/04/14 04:21:47;;;;;;;0.70;0.70;;;;;;;;;;5083896;28;20229;-72
2023/04/14 04:24:14;;;;;;;0.90;0.90;;;;;;;;;;5061908;28;20196;-73
2023/04/14 04:26:41;;;;;;;0.70;0.60;;;;;;;;;;5088716;28;20200;-73
2023/04/14 04:29:08;;;;;;;0.70;0.70;;;;;;;;;;5079281;28;20283;-71
2023/04/14 04:31:35;;;;;;;1.00;0.90;;;;;;;;;;5084954;28;20227;-73
2023/04/14 04:34:04;;;;;;;0.70;0.70;;;;;;;;;;5077160;28;20204;-73
2023/04/14 04:36:32;;;;;;;0.73;0.73;;;;;;;;;;5080404;28;20697;-72
2023/04/14 04:39:02;;;;;;;0.70;0.60;;;;;;;;;;5077576;28;20228;-76
2023/04/14 04:41:33;;;;;;;0.70;0.70;;;;;;;;;;5086433;28;20227;-75
2023/04/14 04:44:01;;;;;;;0.68;0.68;;;;;;;;;;5078640;28;20228;-74
2023/04/14 04:46:41;;;;;;;0.70;0.70;;;;;;;;;;5078891;28;20184;-73
2023/04/14 04:49:08;;;;;;;0.70;0.70;;;;;;;;;;5081906;28;20258;-73
2023/04/14 04:51:35;;;;;;;0.70;0.70;;;;;;;;;;5081191;28;20242;-73
2023/04/14 04:54:04;;;;;;;0.70;0.70;;;;;;;;;;5085897;28;20227;-73
2023/04/14 04:56:31;;;;;;;0.60;0.60;;;;;;;;;;5081012;28;20215;-72
2023/04/14 04:58:58;;;;;;;0.70;0.60;;;;;;;;;;5078398;28;20207;-73
2023/04/14 05:01:25;;;;;;;0.70;0.60;;;;;;;;;;5079443;28;20187;-74
2023/04/14 05:03:51;;;;;;;0.60;0.60;;;;;;;;;;5076552;28;20203;-71
2023/04/14 05:06:18;;;;;;;0.70;0.70;;;;;;;;;;5080646;28;20197;-72
2023/04/14 05:08:45;;;;;;;0.70;0.70;;;;;;;;;;5078657;28;20215;-74
2023/04/14 05:11:13;;;;;;;0.75;0.75;;;;;;;;;;5077085;28;20189;-72
2023/04/14 05:13:40;;;;;;;0.70;0.60;;;;;;;;;;5075205;28;20204;-72
2023/04/14 05:16:07;;;;;;;0.68;0.60;;;;;;;;;;5079582;28;20196;-74
2023/04/14 05:18:35;;;;;;;0.70;0.70;;;;;;;;;;5081483;28;20323;-73
2023/04/14 05:21:03;;;;;;;0.70;0.70;;;;;;;;;;5073563;28;20238;-73
2023/04/14 05:23:31;;;;;;;0.70;0.70;;;;;;;;;;5081931;28;20220;-72
2023/04/14 05:25:58;;;;;;;0.70;0.60;;;;;;;;;;5077695;28;20211;-74
2023/04/14 05:28:46;;;;;;;0.73;0.73;;;;;;;;;;5078488;28;20726;-72
2023/04/14 05:31:12;;;;;;;0.60;0.60;;;;;;;;;;5081964;28;20207;-74
2023/04/14 05:33:39;;;;;;;0.70;0.70;;;;;;;;;;5077675;28;20204;-74
2023/04/14 05:36:06;;;;;;;0.80;0.80;;;;;;;;;;5080202;28;20215;-71
2023/04/14 05:38:35;;;;;;;0.60;0.60;;;;;;;;;;5086387;28;20763;-73
2023/04/14 05:41:02;;;;;;;0.60;0.60;;;;;;;;;;5073271;28;20489;-75
2023/04/14 05:43:29;;;;;;;0.70;0.60;;;;;;;;;;5077488;28;20304;-73
2023/04/14 05:45:57;;;;;;;0.70;0.70;;;;;;;;;;5080024;28;20290;-72
2023/04/14 05:48:26;;;;;;;0.60;0.60;;;;;;;;;;5077046;28;20287;-73
2023/04/14 05:50:53;;;;;;;0.70;0.60;;;;;;;;;;5070128;28;20200;-73
2023/04/14 05:53:19;;;;;;;0.65;0.65;;;;;;;;;;5085878;28;20232;-74
2023/04/14 05:55:47;;;;;;;0.70;0.60;;;;;;;;;;5075538;28;20232;-73
2023/04/14 05:58:14;;;;;;;0.60;0.60;;;;;;;;;;5080771;28;20218;-74
2023/04/14 06:00:42;;;;;;;0.70;0.70;;;;;;;;;;5079358;28;20196;-74
2023/04/14 06:03:11;;;;;;;0.70;0.60;;;;;;;;;;5084146;28;20192;-75
2023/04/14 06:05:38;;;;;;;0.70;0.70;;;;;;;;;;5083567;28;20196;-74
2023/04/14 06:08:05;;;;;;;0.70;0.70;;;;;;;;;;5088850;28;20220;-74
2023/04/14 06:10:34;;;;;;;0.70;0.70;;;;;;;;;;5084303;28;20195;-74
2023/04/14 06:13:03;;;;;;;0.60;0.60;;;;;;;;;;5085230;28;20567;-73
2023/04/14 06:15:31;;;;;;;0.60;0.60;;;;;;;;;;5083987;28;20461;-75
2023/04/14 06:17:57;;;;;;;0.68;0.60;;;;;;;;;;5084595;28;20544;-75
2023/04/14 06:20:27;;;;;;;0.70;0.70;;;;;;;;;;5079860;28;20230;-74
2023/04/14 06:22:55;;;;;;;0.70;0.70;;;;;;;;;;5074123;28;20278;-75
2023/04/14 06:25:22;;;;;;;0.70;0.60;;;;;;;;;;5067735;28;20211;-71
2023/04/14 06:27:50;;;;;;;0.63;0.60;;;;;;;;;;5076835;28;20193;-72
2023/04/14 06:30:17;;;;;;;0.60;0.60;;;;;;;;;;5082872;28;20207;-76
2023/04/14 06:32:45;;;;;;;2.80;2.70;;;;;;;;;;5079840;28;20443;-74
2023/04/14 06:35:11;;;;;;;0.60;0.60;;;;;;;;;;5091949;28;20434;-72
2023/04/14 06:38:00;;;;;;;0.70;0.60;;;;;;;;;;5083367;28;20458;-74
2023/04/14 06:40:27;;;;;;;0.60;0.60;;;;;;;;;;5082531;28;20512;-72
2023/04/14 06:42:54;;;;;;;1.47;0.97;;;;;;;;;;5084675;28;20469;-73
2023/04/14 06:45:21;;;;;;;0.70;0.70;;;;;;;;;;5068876;28;20442;-73
2023/04/14 06:47:48;;;;;;;0.70;0.70;;;;;;;;;;5083785;28;20537;-74
2023/04/14 06:50:14;;;;;;;0.70;0.70;;;;;;;;;;5066352;28;20448;-75
2023/04/14 06:52:42;;;;;;;0.60;0.60;;;;;;;;;;5083490;28;20504;-73
2023/04/14 06:55:10;;;;;;;0.60;0.50;;;;;;;;;;5072460;28;20450;-73
2023/04/14 06:57:38;;;;;;;0.67;0.60;;;;;;;;;;5090288;28;20465;-73
2023/04/14 07:00:08;;;;;;;0.70;0.60;;;;;;;;;;5084013;28;20541;-73
2023/04/14 07:02:36;;;;;;;0.70;0.60;;;;;;;;;;5079333;28;20435;-74
2023/04/14 07:05:04;;;;;;;0.70;0.60;;;;;;;;;;5077844;28;20477;-73
2023/04/14 07:07:33;;;;;;;0.67;0.60;;;;;;;;;;5083750;28;20980;-73
2023/04/14 07:10:01;;;;;;;0.70;0.60;;;;;;;;;;5074110;28;20432;-74
2023/04/14 07:12:31;;;;;;;0.70;0.60;;;;;;;;;;5079324;28;21057;-73
2023/04/14 07:15:00;;;;;;;0.70;0.60;;;;;;;;;;5084070;28;20427;-73
2023/04/14 07:17:26;;;;;;;0.70;0.60;;;;;;;;;;5084015;28;20497;-73
2023/04/14 07:19:53;;;;;;;0.70;0.60;;;;;;;;;;5068038;28;20492;-74
2023/04/14 07:22:19;;;;;;;0.70;0.60;;;;;;;;;;5082754;28;20460;-73
2023/04/14 07:24:47;;;;;;;0.70;0.60;;;;;;;;;;5077910;28;20446;-74
2023/04/14 07:27:14;;;;;;;0.70;0.70;;;;;;;;;;5084754;28;20908;-75
2023/04/14 07:29:44;;;;;;;0.80;0.70;;;;;;;;;;5082833;28;20487;-74
2023/04/14 07:32:12;;;;;;;0.80;0.80;;;;;;;;;;5079193;28;20529;-72
2023/04/14 07:34:42;;;;;;;0.80;0.80;;;;;;;;;;5081630;28;20436;-74
2023/04/14 07:37:10;;;;;;;0.80;0.70;;;;;;;;;;5079758;28;20572;-74
2023/04/14 07:39:38;;;;;;;0.73;0.70;;;;;;;;;;5085708;28;20455;-73
2023/04/14 07:42:05;;;;;;;0.70;0.70;;;;;;;;;;5082969;28;20570;-73
2023/04/14 07:44:32;;;;;;;0.73;0.70;;;;;;;;;;5081471;28;20442;-76
2023/04/14 07:47:00;;;;;;;3.30;1.63;;;;;;;;;;5084368;28;20461;-75
2023/04/14 07:49:26;;;;;;;0.70;0.70;;;;;;;;;;5071505;28;20453;-73
2023/04/14 07:51:53;;;;;;;0.70;0.60;;;;;;;;;;5087995;28;20460;-73
2023/04/14 07:54:21;;;;;;;0.80;0.70;;;;;;;;;;5080684;28;20565;-75
2023/04/14 07:56:47;;;;;;;0.70;0.60;;;;;;;;;;5085385;28;20455;-74
2023/04/14 07:59:16;;;;;;;0.80;0.80;;;;;;;;;;5079452;28;20477;-74
2023/04/14 08:01:43;;;;;;;0.70;0.70;;;;;;;;;;5078899;28;20435;-75
2023/04/14 08:04:13;;;;;;;0.80;0.80;;;;;;;;;;5081749;28;20439;-74
2023/04/14 08:06:40;;;;;;;0.80;0.70;;;;;;;;;;5086162;28;20467;-73
2023/04/14 08:09:06;;;;;;;0.70;0.70;;;;;;;;;;5081427;28;20438;-74
2023/04/14 08:11:33;;;;;;;0.80;0.80;;;;;;;;;;5081339;28;20422;-75
2023/04/14 08:14:03;;;;;;;0.77;0.77;;;;;;;;;;5082625;28;20893;-73
2023/04/14 08:16:35;;;;;;;0.87;0.83;;;;;;;;;;5076480;28;20435;-74
2023/04/14 08:19:03;;;;;;;0.70;0.60;;;;;;;;;;5081959;28;20473;-74
2023/04/14 08:21:31;;;;;;;0.80;0.80;;;;;;;;;;5075149;28;20583;-73
2023/04/14 08:23:59;;;;;;;0.70;0.70;;;;;;;;;;5083023;28;20522;-73
2023/04/14 08:26:26;;;;;;;0.70;0.70;;;;;;;;;;5083427;28;20431;-73
2023/04/14 08:28:54;;;;;;;0.70;0.60;;;;;;;;;;5082052;28;20434;-73
2023/04/14 08:31:22;;;;;;;0.70;0.60;;;;;;;;;;5089458;28;20453;-74
2023/04/14 08:33:49;;;;;;;0.80;0.80;;;;;;;;;;5079444;28;20536;-74
2023/04/14 08:36:16;;;;;;;0.70;0.70;;;;;;;;;;5074138;28;20437;-73
2023/04/14 08:38:45;;;;;;;0.73;0.70;;;;;;;;;;5083044;28;20512;-74
2023/04/14 08:41:14;;;;;;;0.70;0.70;;;;;;;;;;5082421;28;20434;-73
2023/04/14 08:43:41;;;;;;;0.70;0.60;;;;;;;;;;5081131;28;20431;-72
2023/04/14 08:46:09;;;;;;;0.70;0.70;;;;;;;;;;5076436;28;20555;-75
2023/04/14 08:48:37;;;;;;;0.80;0.80;;;;;;;;;;5079277;28;20514;-73
2023/04/14 08:51:06;;;;;;;0.70;0.70;;;;;;;;;;5077014;28;20467;-73
2023/04/14 08:53:34;;;;;;;0.70;0.60;;;;;;;;;;5087898;28;20531;-74
2023/04/14 08:56:03;;;;;;;0.70;0.70;;;;;;;;;;5069992;28;20448;-74
2023/04/14 08:58:29;;;;;;;0.70;0.60;;;;;;;;;;5083793;28;20471;-75
2023/04/14 09:00:56;;;;;;;0.73;0.70;;;;;;;;;;5082644;28;20445;-74
2023/04/14 09:03:25;;;;;;;0.70;0.63;;;;;;;;;;5078827;28;20443;-74
2023/04/14 09:05:58;;;;;;;0.70;0.70;;;;;;;;;;5078120;28;20435;-76
2023/04/14 09:08:26;;;;;;;0.70;0.70;;;;;;;;;;5080290;28;20450;-75
2023/04/14 09:10:53;;;;;;;0.70;0.63;;;;;;;;;;5061749;28;20450;-75
2023/04/14 09:13:22;;;;;;;0.80;0.70;;;;;;;;;;5070337;28;21016;-75
2023/04/14 09:15:49;;;;;;;0.80;0.70;;;;;;;;;;5079448;28;20448;-76
2023/04/14 09:18:15;;;;;;;0.70;0.70;;;;;;;;;;5079388;28;20470;-74
2023/04/14 09:20:46;;;;;;;0.70;0.70;;;;;;;;;;5085567;28;20458;-74
2023/04/14 09:23:33;;;;;;;0.80;0.70;;;;;;;;;;5081634;28;20430;-77
2023/04/14 09:26:00;;;;;;;0.80;0.70;;;;;;;;;;5081204;28;20446;-77
2023/04/14 09:28:28;;;;;;;1.00;0.90;;;;;;;;;;5078208;28;20509;-74
2023/04/14 09:30:55;;;;;;;0.80;0.70;;;;;;;;;;5068649;28;20443;-74
2023/04/14 09:33:22;;;;;;;0.70;0.70;;;;;;;;;;5087167;28;20442;-76
2023/04/14 09:35:51;;;;;;;0.70;0.70;;;;;;;;;;5070848;28;20453;-74
2023/04/14 09:38:30;;;;;;;0.80;0.70;;;;;;;;;;5086273;28;20477;-74
2023/04/14 09:40:58;;;;;;;0.70;0.60;;;;;;;;;;5080583;28;20462;-73
2023/04/14 09:43:25;;;;;;;0.80;0.70;;;;;;;;;;5079051;28;20441;-74
2023/04/14 09:45:55;;;;;;;0.80;0.77;;;;;;;;;;5079779;28;20503;-73
2023/04/14 09:48:24;;;;;;;0.70;0.60;;;;;;;;;;5079939;28;20427;-75
2023/04/14 09:50:55;;;;;;;0.70;0.60;;;;;;;;;;5077800;28;20447;-75
2023/04/14 09:53:26;;;;;;;0.70;0.60;;;;;;;;;;5085381;28;20466;-79
2023/04/14 09:55:54;;;;;;;0.70;0.60;;;;;;;;;;5069516;28;20517;-77
2023/04/14 09:58:21;;;;;;;0.70;0.60;;;;;;;;;;5079707;28;20477;-77
2023/04/14 10:00:53;;;;;;;0.70;0.60;;;;;;;;;;5077862;28;20453;-78
2023/04/14 10:03:30;;;;;;;0.70;0.70;;;;;;;;;;5078648;28;20431;-77
2023/04/14 10:06:00;;;;;;;0.70;0.60;;;;;;;;;;5085536;28;20488;-78
2023/04/14 10:08:33;;;;;;;0.70;0.60;;;;;;;;;;5080486;28;20553;-77
2023/04/14 10:11:11;;;;;;;0.70;0.60;;;;;;;;;;5085553;28;21109;-79
2023/04/14 10:13:38;;;;;;;0.70;0.60;;;;;;;;;;5087983;28;20426;-77
2023/04/14 10:16:07;;;;;;;0.70;0.60;;;;;;;;;;5082142;28;21017;-78
2023/04/14 10:18:35;;;;;;;0.70;0.57;;;;;;;;;;5080340;28;20467;-78
2023/04/14 10:21:02;;;;;;;0.70;0.60;;;;;;;;;;5077966;28;20469;-76
2023/04/14 10:23:30;;;;;;;0.70;0.60;;;;;;;;;;5080514;28;20462;-77
2023/04/14 10:25:57;;;;;;;0.70;0.50;;;;;;;;;;5081612;28;21098;-79
2023/04/14 10:28:27;;;;;;;0.70;0.60;;;;;;;;;;5082335;28;20920;-78
2023/04/14 10:30:55;;;;;;;0.70;0.60;;;;;;;;;;5080838;28;20438;-77
2023/04/14 10:33:23;;;;;;;0.77;0.60;;;;;;;;;;5079527;28;20449;-78
2023/04/14 10:35:52;;;;;;;0.70;0.60;;;;;;;;;;5077816;28;20460;-79
2023/04/14 10:38:19;;;;;;;0.70;0.60;;;;;;;;;;5063832;28;20482;-79
2023/04/14 10:40:46;;;;;;;0.70;0.60;;;;;;;;;;5082488;28;20451;-79
2023/04/14 10:43:13;;;;;;;0.70;0.60;;;;;;;;;;5080802;28;20441;-79
2023/04/14 10:45:51;;;;;;;0.70;0.60;;;;;;;;;;5089831;28;20451;-79
2023/04/14 10:48:18;;;;;;;0.70;0.60;;;;;;;;;;5082079;28;20869;-79
2023/04/14 10:50:47;;;;;;;0.70;0.60;;;;;;;;;;5084210;28;20478;-78
2023/04/14 10:53:15;;;;;;;0.70;0.60;;;;;;;;;;5090633;28;20926;-79
2023/04/14 10:55:45;;;;;;;0.70;0.70;;;;;;;;;;5084533;28;20439;-78
2023/04/14 10:58:21;;;;;;;0.70;0.60;;;;;;;;;;5081375;28;20430;-79
2023/04/14 11:00:48;;;;;;;0.70;0.60;;;;;;;;;;5078697;28;20446;-78
2023/04/14 11:03:15;;;;;;;0.70;0.50;;;;;;;;;;5082607;28;20474;-78
2023/04/14 11:05:43;;;;;;;0.70;0.60;;;;;;;;;;5083417;28;20441;-78
2023/04/14 11:08:13;;;;;;;0.70;0.60;;;;;;;;;;5082863;28;20957;-79
2023/04/14 11:10:46;;;;;;;0.70;0.60;;;;;;;;;;5079560;28;20983;-78
2023/04/14 11:13:13;;;;;;;0.73;0.70;;;;;;;;;;5082221;28;20433;-78
2023/04/14 11:15:47;;;;;;;0.70;0.60;;;;;;;;;;5081609;28;20439;-80
2023/04/14 11:18:15;;;;;;;0.70;0.60;;;;;;;;;;5081199;28;20545;-79
2023/04/14 11:20:42;;;;;;;0.70;0.60;;;;;;;;;;5071882;28;20465;-79
2023/04/14 11:23:13;;;;;;;0.80;0.80;;;;;;;;;;5080356;28;20454;-79
2023/04/14 11:25:40;;;;;;;0.70;0.67;;;;;;;;;;5089683;28;20454;-79
2023/04/14 11:28:07;;;;;;;0.80;0.80;;;;;;;;;;5080303;28;20434;-79
2023/04/14 11:30:34;;;;;;;0.70;0.60;;;;;;;;;;5080710;28;20512;-79
2023/04/14 11:33:01;;;;;;;0.70;0.60;;;;;;;;;;5083459;28;20440;-79
2023/04/14 11:35:28;;;;;;;0.80;0.70;;;;;;;;;;5072873;28;21043;-80
2023/04/14 11:37:56;;;;;;;0.90;0.90;;;;;;;;;;5071327;28;20460;-79
2023/04/14 11:40:26;;;;;;;0.80;0.70;;;;;;;;;;5091654;28;20466;-79
2023/04/14 11:42:53;;;;;;;1.73;1.03;;;;;;;;;;5070991;28;20454;-80
2023/04/14 11:45:20;;;;;;;0.80;0.70;;;;;;;;;;5092164;28;20415;-80
2023/04/14 11:47:57;;;;;;;0.80;0.70;;;;;;;;;;5077348;28;20417;-79
2023/04/14 11:50:26;;;;;;;0.70;0.60;;;;;;;;;;5082921;28;20431;-79
2023/04/14 11:52:58;;;;;;;0.80;0.80;;;;;;;;;;5071983;28;20463;-79
2023/04/14 11:55:27;;;;;;;0.70;0.60;;;;;;;;;;5087313;28;20496;-80
2023/04/14 11:57:55;;;;;;;1.33;1.23;;;;;;;;;;5071024;28;21000;-80
2023/04/14 12:00:23;;;;;;;0.70;0.70;;;;;;;;;;5085927;28;20556;-80
2023/04/14 12:02:50;;;;;;;0.70;0.60;;;;;;;;;;5077937;28;20417;-79
2023/04/14 12:05:18;;;;;;;0.73;0.70;;;;;;;;;;5088273;28;20463;-80
2023/04/14 12:07:46;;;;;;;0.73;0.70;;;;;;;;;;5083230;28;21110;-79
2023/04/14 12:10:13;;;;;;;0.80;0.70;;;;;;;;;;5083851;28;20431;-78
2023/04/14 12:12:42;;;;;;;0.80;0.80;;;;;;;;;;5080633;28;20442;-79
2023/04/14 12:15:10;;;;;;;0.70;0.70;;;;;;;;;;5086452;28;20405;-78
2023/04/14 12:17:37;;;;;;;0.70;0.60;;;;;;;;;;5090788;28;20524;-78
2023/04/14 12:20:04;;;;;;;0.70;0.60;;;;;;;;;;5084568;28;20453;-77
2023/04/14 12:22:31;;;;;;;0.70;0.70;;;;;;;;;;5084209;28;20466;-77
2023/04/14 12:24:58;;;;;;;1.03;0.80;;;;;;;;;;5080937;28;20468;-76
2023/04/14 12:27:26;;;;;;;0.70;0.70;;;;;;;;;;5081677;28;20438;-77
2023/04/14 12:29:55;;;;;;;0.70;0.70;;;;;;;;;;5081296;28;20441;-77
2023/04/14 12:32:21;;;;;;;0.80;0.70;;;;;;;;;;5079608;28;20406;-77
2023/04/14 12:34:53;;;;;;;0.70;0.60;;;;;;;;;;5079133;28;20416;-77
2023/04/14 12:37:23;;;;;;;0.80;0.80;;;;;;;;;;5079573;28;20454;-77
2023/04/14 12:39:50;;;;;;;0.80;0.80;;;;;;;;;;5081828;28;20993;-78
2023/04/14 12:42:17;;;;;;;0.87;0.87;;;;;;;;;;5089560;28;20438;-77
2023/04/14 12:44:54;;;;;;;0.70;0.60;;;;;;;;;;5078383;28;20451;-77
2023/04/14 12:47:28;;;;;;;2.37;1.27;;;;;;;;;;5080874;28;20440;-76
2023/04/14 12:49:55;;;;;;;0.70;0.60;;;;;;;;;;5079989;28;20801;-76
2023/04/14 12:52:39;;;;;;;0.70;0.60;;;;;;;;;;5077166;28;20436;-77
2023/04/14 12:55:06;;;;;;;0.70;0.70;;;;;;;;;;5079422;28;20417;-76
2023/04/14 12:57:34;;;;;;;0.80;0.73;;;;;;;;;;5080327;28;20465;-76
2023/04/14 13:00:03;;;;;;;0.70;0.60;;;;;;;;;;5076588;28;20450;-76
2023/04/14 13:02:32;;;;;;;0.80;0.70;;;;;;;;;;5080471;28;20464;-77
2023/04/14 13:04:59;;;;;;;0.70;0.60;;;;;;;;;;5080371;28;20438;-77
2023/04/14 13:07:25;;;;;;;0.80;0.80;;;;;;;;;;5079132;28;20485;-77
2023/04/14 13:09:52;;;;;;;0.70;0.70;;;;;;;;;;5088351;28;20444;-76
2023/04/14 13:12:19;;;;;;;0.77;0.70;;;;;;;;;;5079688;28;20434;-78
2023/04/14 13:14:46;;;;;;;0.70;0.70;;;;;;;;;;5080801;28;20982;-75
2023/04/14 13:17:15;;;;;;;0.70;0.70;;;;;;;;;;5086031;28;20460;-77
2023/04/14 13:19:42;;;;;;;0.80;0.70;;;;;;;;;;5083680;28;20466;-77
2023/04/14 13:22:08;;;;;;;0.80;0.80;;;;;;;;;;5080766;28;20453;-78
2023/04/14 13:24:35;;;;;;;0.70;0.60;;;;;;;;;;5079018;28;20445;-76
2023/04/14 13:27:02;;;;;;;0.80;0.80;;;;;;;;;;5082059;28;20451;-78
2023/04/14 13:29:30;;;;;;;1.00;0.87;;;;;;;;;;5077694;28;20959;-76
2023/04/14 13:31:57;;;;;;;0.80;0.70;;;;;;;;;;5083310;28;20440;-78
2023/04/14 13:34:25;;;;;;;0.83;0.77;;;;;;;;;;5083572;28;20444;-78
2023/04/14 13:36:51;;;;;;;0.80;0.80;;;;;;;;;;5078273;28;20465;-78
2023/04/14 13:39:20;;;;;;;0.70;0.70;;;;;;;;;;5080240;28;20466;-77
2023/04/14 13:41:48;;;;;;;0.77;0.70;;;;;;;;;;5077880;28;20442;-77
2023/04/14 13:44:14;;;;;;;0.70;0.70;;;;;;;;;;5079315;28;20441;-76
2023/04/14 13:46:43;;;;;;;0.70;0.70;;;;;;;;;;5079355;28;20443;-76
2023/04/14 13:49:10;;;;;;;0.70;0.60;;;;;;;;;;5064075;28;20442;-76
2023/04/14 13:51:38;;;;;;;0.80;0.80;;;;;;;;;;5073769;28;20470;-75
2023/04/14 13:54:06;;;;;;;0.80;0.80;;;;;;;;;;5077160;28;20446;-75
2023/04/14 13:56:33;;;;;;;0.80;0.70;;;;;;;;;;5080076;28;20412;-75
2023/04/14 13:58:59;;;;;;;0.80;0.80;;;;;;;;;;5078119;28;20956;-74
2023/04/14 14:01:26;;;;;;;0.80;0.70;;;;;;;;;;5083779;28;20855;-74
2023/04/14 14:03:53;;;;;;;0.80;0.70;;;;;;;;;;5081076;28;20485;-75
2023/04/14 14:06:20;;;;;;;0.80;0.80;;;;;;;;;;5074032;28;20508;-74
2023/04/14 14:09:00;;;;;;;0.70;0.70;;;;;;;;;;5077088;28;20469;-75
2023/04/14 14:11:30;;;;;;;0.70;0.70;;;;;;;;;;5080863;28;21036;-74
2023/04/14 14:13:57;;;;;;;0.70;0.70;;;;;;;;;;5085836;28;20435;-75
2023/04/14 14:16:23;;;;;;;0.70;0.70;;;;;;;;;;5080579;28;20795;-75
2023/04/14 14:19:04;;;;;;;0.70;0.70;;;;;;;;;;5078502;28;20453;-75
2023/04/14 14:21:30;;;;;;;0.80;0.80;;;;;;;;;;5081872;28;20478;-75
2023/04/14 14:23:59;;;;;;;0.70;0.70;;;;;;;;;;5081667;28;20438;-75
2023/04/14 14:26:26;;;;;;;0.80;0.70;;;;;;;;;;5077317;28;20430;-75
2023/04/14 14:28:54;;;;;;;0.80;0.70;;;;;;;;;;5083103;28;20443;-75
2023/04/14 14:31:20;;;;;;;0.70;0.70;;;;;;;;;;5082422;28;20413;-75
2023/04/14 14:33:47;;;;;;;0.90;0.90;;;;;;;;;;5083804;28;20426;-75
2023/04/14 14:36:14;;;;;;;0.70;0.60;;;;;;;;;;5083838;28;20439;-75
2023/04/14 14:38:41;;;;;;;0.80;0.70;;;;;;;;;;5084185;28;20450;-75
2023/04/14 14:41:10;;;;;;;0.70;0.70;;;;;;;;;;5080895;28;20546;-75
2023/04/14 14:43:37;;;;;;;0.70;0.70;;;;;;;;;;5079568;28;20793;-75
2023/04/14 14:46:04;;;;;;;0.90;0.90;;;;;;;;;;5080048;28;20440;-75
2023/04/14 14:48:31;;;;;;;0.77;0.70;;;;;;;;;;5084263;28;20926;-76
2023/04/14 14:50:57;;;;;;;0.70;0.70;;;;;;;;;;5084950;28;20871;-75